createdAt,value
2022-08-25T00:01:47.325Z,90.09
2022-08-25T00:04:53.789Z,89.11
2022-08-25T00:07:57.583Z,90.44
2022-08-25T00:11:03.249Z,93.18
2022-08-25T00:14:12.069Z,91.56
2022-08-25T00:17:15.393Z,91.08
2022-08-25T00:20:18.854Z,90.44
2022-08-25T00:23:22.181Z,90.81
2022-08-25T00:26:27.637Z,90.30
2022-08-25T00:29:33.490Z,90.43
2022-08-25T00:32:36.764Z,93.68
2022-08-25T00:35:42.368Z,92.63
2022-08-25T00:38:47.953Z,90.95
2022-08-25T00:41:53.413Z,91.14
2022-08-25T00:44:58.415Z,90.85
2022-08-25T00:48:04.825Z,89.02
2022-08-25T00:51:10.297Z,89.65
2022-08-25T00:54:18.815Z,89.73
2022-08-25T00:57:34.733Z,91.00
2022-08-25T01:00:43.340Z,89.85
2022-08-25T01:03:46.915Z,91.45
2022-08-25T01:06:50.742Z,91.17
2022-08-25T01:09:55.631Z,90.08
2022-08-25T01:13:04.107Z,88.78
2022-08-25T01:16:09.534Z,90.92
2022-08-25T01:19:15.744Z,90.32
2022-08-25T01:22:20.988Z,89.67
2022-08-25T01:25:36.538Z,89.07
2022-08-25T01:29:01.883Z,90.17
2022-08-25T01:32:08.386Z,89.65
2022-08-25T01:35:11.809Z,89.10
2022-08-25T01:38:17.000Z,90.08
2022-08-25T01:41:27.653Z,89.81
2022-08-25T01:44:31.637Z,91.79
2022-08-25T01:47:35.383Z,91.08
2022-08-25T01:50:39.297Z,90.27
2022-08-25T01:53:44.750Z,90.61
2022-08-25T01:56:48.132Z,91.16
2022-08-25T01:59:51.673Z,91.97
2022-08-25T02:02:55.650Z,92.77
2022-08-25T02:06:01.391Z,93.12
2022-08-25T02:09:12.195Z,93.90
2022-08-25T02:12:15.583Z,94.81
2022-08-25T02:15:18.918Z,93.25
2022-08-25T02:18:22.565Z,91.36
2022-08-25T02:21:26.066Z,89.38
2022-08-25T02:24:30.820Z,90.28
2022-08-25T02:27:34.325Z,89.09
2022-08-25T02:30:38.876Z,88.60
2022-08-25T02:33:42.301Z,87.32
2022-08-25T02:36:45.748Z,88.11
2022-08-25T02:39:50.513Z,87.33
2022-08-25T02:42:53.857Z,86.88
2022-08-25T02:45:57.544Z,86.68
2022-08-25T02:49:01.092Z,85.70
2022-08-25T02:52:05.415Z,86.95
2022-08-25T02:55:14.298Z,85.55
2022-08-25T02:58:17.742Z,85.39
2022-08-25T03:01:28.362Z,84.15
2022-08-25T03:04:32.386Z,82.74
2022-08-25T03:07:36.436Z,82.56
2022-08-25T03:10:41.520Z,83.04
2022-08-25T03:13:45.212Z,83.51
2022-08-25T03:16:48.659Z,81.61
2022-08-25T03:19:52.611Z,82.66
2022-08-25T03:22:55.993Z,83.83
2022-08-25T03:26:18.027Z,85.23
2022-08-25T03:29:21.841Z,82.31
2022-08-25T03:32:25.088Z,82.45
2022-08-25T03:35:28.520Z,82.11
2022-08-25T03:38:34.408Z,82.48
2022-08-25T03:41:39.176Z,82.71
2022-08-25T03:44:42.518Z,81.50
2022-08-25T03:47:48.699Z,81.99
2022-08-25T03:50:54.924Z,81.97
2022-08-25T03:53:59.109Z,83.85
2022-08-25T03:57:04.175Z,85.22
2022-08-25T04:00:09.503Z,84.29
2022-08-25T04:03:15.847Z,82.23
2022-08-25T04:06:20.146Z,82.77
2022-08-25T04:09:23.653Z,83.67
2022-08-25T04:12:28.451Z,84.12
2022-08-25T04:15:32.519Z,83.54
2022-08-25T04:18:36.090Z,82.32
2022-08-25T04:21:40.833Z,82.89
2022-08-25T04:24:44.190Z,81.85
2022-08-25T04:27:48.918Z,81.15
2022-08-25T04:30:52.377Z,80.85
2022-08-25T04:33:57.568Z,79.96
2022-08-25T04:37:03.027Z,80.21
2022-08-25T04:40:07.298Z,79.73
2022-08-25T04:43:12.095Z,80.04
2022-08-25T04:46:20.598Z,78.62
2022-08-25T04:49:24.197Z,78.71
2022-08-25T04:52:27.541Z,78.50
2022-08-25T04:55:30.813Z,77.35
2022-08-25T04:58:35.847Z,76.99
2022-08-25T05:01:40.701Z,75.26
2022-08-25T05:04:44.156Z,75.87
2022-08-25T05:07:47.831Z,76.75
2022-08-25T05:10:54.541Z,74.80
2022-08-25T05:14:03.109Z,75.84
2022-08-25T05:17:06.981Z,75.08
2022-08-25T05:20:11.245Z,75.22
2022-08-25T05:23:14.569Z,74.99
2022-08-25T05:26:21.291Z,75.42
2022-08-25T05:29:27.409Z,73.33
2022-08-25T05:32:30.736Z,73.26
2022-08-25T05:35:34.164Z,73.11
2022-08-25T05:38:38.318Z,72.91
2022-08-25T05:41:42.194Z,70.91
2022-08-25T05:44:47.024Z,70.82
2022-08-25T05:47:51.104Z,71.88
2022-08-25T05:50:55.679Z,70.32
2022-08-25T05:53:58.976Z,68.35
2022-08-25T05:57:02.465Z,68.03
2022-08-25T06:00:09.432Z,68.55
2022-08-25T06:03:15.915Z,68.44
2022-08-25T06:06:19.391Z,67.82
2022-08-25T06:09:22.995Z,67.49
2022-08-25T06:12:26.345Z,67.25
2022-08-25T06:15:31.954Z,66.46
2022-08-25T06:18:35.373Z,64.82
2022-08-25T06:21:40.699Z,64.94
2022-08-25T06:24:44.159Z,64.24
2022-08-25T06:27:47.753Z,64.58
2022-08-25T06:30:52.478Z,64.52
2022-08-25T06:33:55.975Z,65.09
2022-08-25T06:36:59.425Z,64.14
2022-08-25T06:40:02.890Z,65.10
2022-08-25T06:43:08.993Z,64.17
2022-08-25T06:46:15.621Z,64.22
2022-08-25T06:49:19.119Z,62.92
2022-08-25T06:52:22.435Z,61.59
2022-08-25T06:55:34.825Z,61.75
2022-08-25T06:58:38.879Z,61.77
2022-08-25T07:01:43.787Z,61.50
2022-08-25T07:04:47.426Z,60.07
2022-08-25T07:07:52.118Z,60.77
2022-08-25T07:10:55.791Z,60.24
2022-08-25T07:13:59.137Z,59.01
2022-08-25T07:17:11.063Z,58.97
2022-08-25T07:20:16.302Z,59.36
2022-08-25T07:23:20.015Z,59.19
2022-08-25T07:26:37.375Z,57.24
2022-08-25T07:29:42.620Z,56.61
2022-08-25T07:32:47.557Z,56.90
2022-08-25T07:35:57.701Z,57.09
2022-08-25T07:39:04.656Z,56.10
2022-08-25T07:42:12.225Z,54.42
2022-08-25T07:45:20.558Z,53.61
2022-08-25T07:48:25.851Z,53.62
2022-08-25T07:51:29.333Z,52.76
2022-08-25T07:54:34.480Z,54.28
2022-08-25T07:57:40.859Z,52.83
2022-08-25T08:00:44.598Z,52.36
2022-08-25T08:03:51.628Z,52.60
2022-08-25T08:06:55.099Z,52.33
2022-08-25T08:10:29.741Z,50.33
2022-08-25T08:13:23.858Z,51.50
2022-08-25T08:16:29.817Z,50.16
2022-08-25T08:19:34.859Z,50.57
2022-08-25T08:22:39.634Z,50.08
2022-08-25T08:25:43.215Z,48.54
2022-08-25T08:28:52.084Z,48.19
2022-08-25T08:31:55.730Z,48.16
2022-08-25T08:35:01.694Z,47.95
2022-08-25T08:38:10.268Z,46.55
2022-08-25T08:42:12.052Z,45.61
2022-08-25T08:45:28.012Z,45.28
2022-08-25T08:48:52.694Z,46.03
2022-08-25T08:52:02.754Z,45.81
2022-08-25T08:55:18.201Z,45.61
2022-08-25T08:58:26.418Z,44.24
2022-08-25T09:01:34.459Z,43.71
2022-08-25T09:04:43.817Z,44.97
2022-08-25T09:07:56.061Z,44.43
2022-08-25T09:11:04.872Z,43.67
2022-08-25T09:14:30.665Z,43.93
2022-08-25T09:17:54.311Z,43.59
2022-08-25T09:21:10.726Z,42.71
2022-08-25T09:24:29.659Z,41.51
2022-08-25T09:27:41.244Z,41.89
2022-08-25T09:30:52.539Z,40.73
2022-08-25T09:33:58.952Z,40.53
2022-08-25T09:37:03.443Z,40.65
2022-08-25T09:40:11.803Z,40.33
2022-08-25T09:43:23.531Z,39.57
2022-08-25T09:46:28.954Z,39.56
2022-08-25T09:49:36.389Z,39.69
2022-08-25T09:52:41.802Z,38.63
2022-08-25T09:55:53.578Z,38.93
2022-08-25T09:59:34.439Z,39.00
2022-08-25T10:02:38.872Z,38.84
2022-08-25T10:06:00.477Z,36.52
2022-08-25T10:09:07.591Z,36.81
2022-08-25T10:12:22.330Z,36.95
2022-08-25T10:15:34.638Z,37.32
2022-08-25T10:18:38.503Z,39.66
2022-08-25T10:21:44.955Z,39.47
2022-08-25T10:24:50.779Z,39.65
2022-08-25T10:28:13.612Z,39.57
2022-08-25T10:31:25.430Z,40.41
2022-08-25T10:34:44.651Z,39.62
2022-08-25T10:38:04.566Z,39.13
2022-08-25T10:41:21.089Z,38.68
2022-08-25T10:44:58.612Z,36.75
2022-08-25T10:48:23.742Z,35.64
2022-08-25T10:51:40.252Z,35.12
2022-08-25T10:54:50.712Z,35.20
2022-08-25T10:58:01.684Z,35.08
2022-08-25T11:01:12.790Z,35.83
2022-08-25T11:04:21.426Z,36.50
2022-08-25T11:07:33.790Z,36.18
2022-08-25T11:10:45.823Z,36.82
2022-08-25T11:13:56.478Z,36.41
2022-08-25T11:17:07.612Z,35.93
2022-08-25T11:20:26.646Z,35.74
2022-08-25T11:23:38.489Z,34.35
2022-08-25T11:26:48.411Z,34.45
2022-08-25T11:30:01.908Z,34.41
2022-08-25T11:33:07.417Z,33.58
2022-08-25T11:36:20.925Z,33.42
2022-08-25T11:39:38.687Z,33.20
2022-08-25T11:42:58.081Z,33.21
2022-08-25T11:46:19.214Z,33.56
2022-08-25T11:49:46.732Z,33.36
2022-08-25T11:52:56.004Z,32.81
2022-08-25T11:56:04.607Z,33.36
2022-08-25T11:59:09.720Z,32.64
2022-08-25T12:02:39.170Z,32.49
2022-08-25T12:06:14.947Z,33.11
2022-08-25T12:09:22.182Z,32.90
2022-08-25T12:12:37.930Z,33.82
2022-08-25T12:16:02.414Z,34.39
2022-08-25T12:19:39.724Z,33.84
2022-08-25T12:22:58.164Z,34.38
2022-08-25T12:26:06.329Z,34.83
2022-08-25T12:29:18.084Z,34.35
2022-08-25T12:32:50.194Z,35.05
2022-08-25T12:35:58.518Z,34.66
2022-08-25T12:39:24.614Z,33.82
2022-08-25T12:42:36.049Z,34.72
2022-08-25T12:45:44.434Z,34.77
2022-08-25T12:48:57.704Z,35.45
2022-08-25T12:52:06.255Z,35.46
2022-08-25T12:55:13.371Z,35.46
2022-08-25T12:58:18.008Z,35.34
2022-08-25T13:01:35.578Z,35.38
2022-08-25T13:05:02.482Z,34.55
2022-08-25T13:08:41.176Z,34.51
2022-08-25T13:11:59.932Z,35.74
2022-08-25T13:15:04.901Z,35.70
2022-08-25T13:18:16.152Z,36.20
2022-08-25T13:21:32.562Z,36.79
2022-08-25T13:24:43.747Z,35.75
2022-08-25T13:27:56.016Z,36.12
2022-08-25T13:31:02.262Z,37.33
2022-08-25T13:34:08.590Z,40.17
2022-08-25T13:37:33.348Z,44.25
2022-08-25T13:40:37.261Z,47.50
2022-08-25T13:43:42.595Z,47.20
2022-08-25T13:46:47.334Z,47.83
2022-08-25T13:49:50.602Z,47.41
2022-08-25T13:52:58.082Z,46.33
2022-08-25T13:56:04.506Z,46.32
2022-08-25T13:59:21.410Z,47.02
2022-08-25T14:02:44.329Z,47.36
2022-08-25T14:05:47.794Z,47.12
2022-08-25T14:09:07.779Z,46.74
2022-08-25T14:15:38.826Z,47.99
2022-08-25T14:18:48.568Z,48.30
2022-08-25T14:21:56.799Z,48.08
2022-08-25T14:25:00.357Z,48.33
2022-08-25T14:28:07.540Z,46.92
2022-08-25T14:31:16.158Z,46.59
2022-08-25T14:34:25.394Z,46.92
2022-08-25T14:37:32.662Z,46.82
2022-08-25T14:40:36.265Z,45.86
2022-08-25T14:43:39.642Z,45.40
2022-08-25T14:46:47.345Z,45.05
2022-08-25T14:49:51.089Z,44.27
2022-08-25T14:52:54.424Z,43.65
2022-08-25T14:56:08.383Z,43.19
2022-08-25T14:59:11.949Z,42.22
2022-08-25T15:02:20.270Z,41.63
2022-08-25T15:05:28.491Z,40.78
2022-08-25T15:08:49.491Z,40.06
2022-08-25T15:11:55.519Z,40.71
2022-08-25T15:14:59.063Z,40.24
2022-08-25T15:18:04.003Z,39.94
2022-08-25T15:21:08.650Z,40.61
2022-08-25T15:24:17.429Z,40.80
2022-08-25T15:27:22.324Z,41.16
2022-08-25T15:30:30.969Z,41.58
2022-08-25T15:33:36.031Z,42.10
2022-08-25T15:36:39.940Z,42.30
2022-08-25T15:39:47.233Z,42.17
2022-08-25T15:42:50.702Z,42.02
2022-08-25T15:45:54.004Z,41.38
2022-08-25T15:48:59.772Z,41.35
2022-08-25T15:52:03.556Z,41.08
2022-08-25T15:55:08.495Z,41.52
2022-08-25T15:58:11.890Z,41.42
2022-08-25T16:01:16.600Z,41.18
2022-08-25T16:04:26.411Z,41.17
2022-08-25T16:07:29.984Z,41.49
2022-08-25T16:10:36.305Z,41.95
2022-08-25T16:13:39.597Z,41.98
2022-08-25T16:16:45.500Z,42.00
2022-08-25T16:19:50.417Z,42.22
2022-08-25T16:22:53.892Z,42.70
2022-08-25T16:25:57.525Z,42.71
2022-08-25T16:29:01.681Z,42.62
2022-08-25T16:32:10.730Z,42.87
2022-08-25T16:35:16.418Z,42.91
2022-08-25T16:38:19.839Z,43.22
2022-08-25T16:41:25.227Z,43.66
2022-08-25T16:44:28.662Z,43.58
2022-08-25T16:47:34.557Z,45.84
2022-08-25T16:50:40.422Z,48.06
2022-08-25T16:54:01.375Z,50.27
2022-08-25T16:57:04.854Z,51.67
2022-08-25T17:00:12.419Z,54.00
2022-08-25T17:03:15.771Z,53.75
2022-08-25T17:06:21.469Z,53.63
2022-08-25T17:09:24.856Z,53.97
2022-08-25T17:12:29.050Z,54.29
2022-08-25T17:15:33.018Z,53.80
2022-08-25T17:18:36.719Z,53.76
2022-08-25T17:21:45.335Z,53.86
2022-08-25T17:24:59.347Z,52.75
2022-08-25T17:28:05.961Z,52.89
2022-08-25T17:31:09.914Z,52.92
2022-08-25T17:34:16.517Z,53.19
2022-08-25T17:37:21.528Z,52.98
2022-08-25T17:40:26.515Z,52.47
2022-08-25T17:43:31.711Z,52.51
2022-08-25T17:46:35.170Z,54.38
2022-08-25T17:49:38.793Z,54.19
2022-08-25T17:52:44.000Z,53.98
2022-08-25T17:55:48.025Z,53.63
2022-08-25T17:58:57.055Z,53.79
2022-08-25T18:02:02.216Z,53.88
2022-08-25T18:05:07.227Z,54.07
2022-08-25T18:08:12.383Z,54.21
2022-08-25T18:11:15.985Z,54.29
2022-08-25T18:14:25.238Z,54.97
2022-08-25T18:17:29.171Z,54.76
2022-08-25T18:20:32.593Z,54.94
2022-08-25T18:23:37.338Z,55.18
2022-08-25T18:26:41.313Z,55.54
2022-08-25T18:29:44.855Z,55.39
2022-08-25T18:32:49.309Z,56.33
2022-08-25T18:35:52.861Z,56.26
2022-08-25T18:39:14.963Z,56.58
2022-08-25T18:42:20.191Z,57.18
2022-08-25T18:45:26.679Z,58.65
2022-08-25T18:48:30.161Z,58.27
2022-08-25T18:51:33.523Z,59.09
2022-08-25T18:54:39.988Z,59.87
2022-08-25T18:57:44.420Z,60.42
2022-08-25T19:00:50.493Z,61.24
2022-08-25T19:03:53.929Z,62.29
2022-08-25T19:06:57.314Z,61.91
2022-08-25T19:10:02.030Z,61.99
2022-08-25T19:13:07.885Z,61.93
2022-08-25T19:16:13.920Z,61.14
2022-08-25T19:19:21.702Z,61.82
2022-08-25T19:22:40.681Z,61.96
2022-08-25T19:25:46.231Z,62.29
2022-08-25T19:28:53.430Z,62.99
2022-08-25T19:31:57.500Z,62.38
2022-08-25T19:35:05.537Z,62.56
2022-08-25T19:38:34.018Z,62.16
2022-08-25T19:41:38.399Z,62.83
2022-08-25T19:44:42.213Z,62.08
2022-08-25T19:47:45.782Z,62.06
2022-08-25T19:50:49.198Z,62.47
2022-08-25T19:54:01.531Z,63.54
2022-08-25T19:57:10.631Z,64.84
2022-08-25T20:00:20.308Z,64.01
2022-08-25T20:03:23.785Z,62.45
2022-08-25T20:06:27.872Z,63.08
2022-08-25T20:09:39.231Z,63.20
2022-08-25T20:12:45.886Z,63.05
2022-08-25T20:15:49.353Z,62.42
2022-08-25T20:18:54.861Z,61.75
2022-08-25T20:21:59.075Z,60.52
2022-08-25T20:25:13.499Z,59.99
2022-08-25T20:28:19.216Z,60.33
2022-08-25T20:31:22.780Z,59.72
2022-08-25T20:34:28.651Z,59.34
2022-08-25T20:37:33.924Z,59.21
2022-08-25T20:40:39.759Z,59.55
2022-08-25T20:43:45.476Z,59.37
2022-08-25T20:46:49.841Z,59.53
2022-08-25T20:49:55.045Z,59.68
2022-08-25T20:52:58.874Z,59.30
2022-08-25T20:56:08.768Z,59.32
2022-08-25T20:59:14.401Z,58.87
2022-08-25T21:02:18.741Z,59.00
2022-08-25T21:05:22.503Z,58.58
2022-08-25T21:08:25.892Z,57.69
2022-08-25T21:11:29.195Z,57.78
2022-08-25T21:14:35.032Z,57.43
2022-08-25T21:17:40.562Z,58.07
2022-08-25T21:20:44.252Z,57.12
2022-08-25T21:23:49.394Z,57.49
2022-08-25T21:26:55.983Z,58.50
2022-08-25T21:30:01.006Z,57.97
2022-08-25T21:33:04.746Z,56.88
2022-08-25T21:36:10.957Z,56.66
2022-08-25T21:39:15.584Z,57.35
2022-08-25T21:42:19.917Z,56.27
2022-08-25T21:45:24.675Z,56.11
2022-08-25T21:48:28.023Z,55.44
2022-08-25T21:51:34.959Z,55.28
2022-08-25T21:54:43.786Z,55.34
2022-08-25T21:57:47.241Z,56.50
2022-08-25T22:00:52.133Z,56.60
2022-08-25T22:03:56.822Z,56.76
2022-08-25T22:07:00.426Z,57.28
2022-08-25T22:10:03.947Z,56.67
2022-08-25T22:13:08.507Z,56.35
2022-08-25T22:16:13.864Z,56.66
2022-08-25T22:19:17.500Z,56.87
2022-08-25T22:22:21.012Z,56.97
2022-08-25T22:25:25.046Z,56.38
2022-08-25T22:28:29.096Z,56.84
2022-08-25T22:31:33.950Z,56.26
2022-08-25T22:34:40.171Z,56.09
2022-08-25T22:37:44.074Z,55.77
2022-08-25T22:40:47.505Z,55.82
2022-08-25T22:43:53.002Z,55.72
2022-08-25T22:46:58.058Z,55.74
2022-08-25T22:50:01.812Z,55.45
2022-08-25T22:53:05.467Z,55.56
2022-08-25T22:56:10.764Z,55.00
2022-08-25T22:59:15.823Z,55.24
2022-08-25T23:02:20.543Z,55.15
2022-08-25T23:05:23.966Z,55.49
2022-08-25T23:08:39.182Z,55.25
2022-08-25T23:11:44.524Z,56.02
2022-08-25T23:14:49.890Z,54.42
2022-08-25T23:17:54.968Z,54.86
2022-08-25T23:21:15.718Z,55.47
2022-08-25T23:24:29.702Z,54.66
2022-08-25T23:27:33.601Z,54.57
2022-08-25T23:30:40.614Z,54.44
2022-08-25T23:33:50.018Z,54.48
2022-08-25T23:36:53.896Z,54.81
2022-08-25T23:39:57.547Z,54.49
2022-08-25T23:43:01.580Z,54.95
2022-08-25T23:46:05.915Z,55.08
2022-08-25T23:49:10.837Z,54.84
2022-08-25T23:52:17.388Z,55.03
2022-08-25T23:55:21.585Z,54.53
2022-08-25T23:58:25.311Z,53.72
